EVRA Airport Information

Runway Information
Runway 18 Length 10499 ft width 148 ft
Elevation 31 ft Threshold 0 ft Heading 185
Runway 36 Length 10499 ft Width 148 ft
Elevation 34 ft Threshold 0 ft Heading 5
Airport Frequencies
Type APP Name APP Frequency 129.925 MHZ
Type ATIS Name ATIS Frequency 121.2 MHZ
Type GND Name Riga Groun Frequency 118.8 MHZ
Type MISC Name Riga Apron Frequency 131.6 MHZ
Type TWR Name TWR Frequency 118.1 MHZ
Airport Navaids
Type VOR-DME Name Riga Frequency 112050 KHZ
Type VOR-DME Name Riga Frequency 113700 KHZ
Airport Weather Information & NOTAM
ADDS - METARS form results

(1119 UTC 17 July 2018)
 
METAR text: EVRA 171050Z 08012KT CAVOK 29/15 Q1009 NOSIG
Conditions at: EVRA (RIGA AIRPORT , LV) observed 1050 UTC 17 July 2018
Temperature: 29.0°C (84°F)
Dewpoint: 15.0°C (59°F) [RH = 43%]
Pressure (altimeter): 29.79 inches Hg (1009.0 mb)
Winds: from the E (80 degrees) at 14 MPH (12 knots; 6.2 m/s)
Visibility: 6 or more miles (10+ km)
Ceiling: ceiling and visibility are OK
Clouds: unknown
Weather: no significant weather observed at this time

METAR text: EVRA 171020Z 06014KT 040V100 CAVOK 29/16 Q1009 NOSIG
Conditions at: EVRA (RIGA AIRPORT , LV) observed 1020 UTC 17 July 2018
Temperature: 29.0°C (84°F)
Dewpoint: 16.0°C (61°F) [RH = 45%]
Pressure (altimeter): 29.79 inches Hg (1009.0 mb)
Winds: from the ENE (60 degrees) at 16 MPH (14 knots; 7.3 m/s)
Visibility: 6 or more miles (10+ km)
Ceiling: ceiling and visibility are OK
Clouds: unknown
Weather: no significant weather observed at this time